sensor_id;sensor_type;location;lat;lon;timestamp;temperature;humidity
16867;DHT22;8550;52.596;13.320;2023-05-23T00:03:14;18.00;79.10
16867;DHT22;8550;52.596;13.320;2023-05-23T00:08:16;18.00;76.40
16867;DHT22;8550;52.596;13.320;2023-05-23T00:13:18;18.00;76.00
16867;DHT22;8550;52.596;13.320;2023-05-23T00:18:21;18.00;77.00
16867;DHT22;8550;52.596;13.320;2023-05-23T00:23:24;17.90;76.20
16867;DHT22;8550;52.596;13.320;2023-05-23T00:28:29;17.90;76.60
16867;DHT22;8550;52.596;13.320;2023-05-23T00:33:32;17.80;77.50
16867;DHT22;8550;52.596;13.320;2023-05-23T00:38:34;17.60;78.10
16867;DHT22;8550;52.596;13.320;2023-05-23T00:43:36;17.60;79.20
16867;DHT22;8550;52.596;13.320;2023-05-23T00:48:39;17.50;79.60
16867;DHT22;8550;52.596;13.320;2023-05-23T00:53:41;17.50;79.50
16867;DHT22;8550;52.596;13.320;2023-05-23T00:58:44;17.50;80.50
16867;DHT22;8550;52.596;13.320;2023-05-23T01:03:47;17.40;80.40
16867;DHT22;8550;52.596;13.320;2023-05-23T01:08:49;17.40;80.60
16867;DHT22;8550;52.596;13.320;2023-05-23T01:13:58;17.40;80.90
16867;DHT22;8550;52.596;13.320;2023-05-23T01:19:08;17.40;81.00
16867;DHT22;8550;52.596;13.320;2023-05-23T01:24:37;17.40;80.40
16867;DHT22;8550;52.596;13.320;2023-05-23T01:29:48;17.50;80.90
16867;DHT22;8550;52.596;13.320;2023-05-23T01:34:54;17.50;81.20
16867;DHT22;8550;52.596;13.320;2023-05-23T01:39:56;17.50;82.50
16867;DHT22;8550;52.596;13.320;2023-05-23T01:44:59;17.50;83.30
16867;DHT22;8550;52.596;13.320;2023-05-23T01:50:02;17.50;83.20
16867;DHT22;8550;52.596;13.320;2023-05-23T01:55:05;17.50;84.60
16867;DHT22;8550;52.596;13.320;2023-05-23T02:00:11;17.50;86.20
16867;DHT22;8550;52.596;13.320;2023-05-23T02:05:14;17.40;84.80
16867;DHT22;8550;52.596;13.320;2023-05-23T02:10:16;17.30;87.50
16867;DHT22;8550;52.596;13.320;2023-05-23T02:15:20;17.30;87.40
16867;DHT22;8550;52.596;13.320;2023-05-23T02:20:22;17.20;88.60
16867;DHT22;8550;52.596;13.320;2023-05-23T02:25:24;17.10;90.10
16867;DHT22;8550;52.596;13.320;2023-05-23T02:30:27;17.10;90.50
16867;DHT22;8550;52.596;13.320;2023-05-23T02:35:29;17.00;91.80
16867;DHT22;8550;52.596;13.320;2023-05-23T02:40:31;17.00;92.20
16867;DHT22;8550;52.596;13.320;2023-05-23T02:45:35;16.90;93.10
16867;DHT22;8550;52.596;13.320;2023-05-23T02:50:37;16.90;93.90
16867;DHT22;8550;52.596;13.320;2023-05-23T02:55:39;16.80;95.70
16867;DHT22;8550;52.596;13.320;2023-05-23T03:00:43;16.80;95.00
16867;DHT22;8550;52.596;13.320;2023-05-23T03:05:45;16.80;94.80
16867;DHT22;8550;52.596;13.320;2023-05-23T03:10:48;16.80;95.30
16867;DHT22;8550;52.596;13.320;2023-05-23T03:15:51;16.80;96.00
16867;DHT22;8550;52.596;13.320;2023-05-23T03:20:53;16.80;95.10
16867;DHT22;8550;52.596;13.320;2023-05-23T03:25:55;16.90;95.00
16867;DHT22;8550;52.596;13.320;2023-05-23T03:31:00;16.90;95.00
16867;DHT22;8550;52.596;13.320;2023-05-23T03:36:02;17.00;94.60
16867;DHT22;8550;52.596;13.320;2023-05-23T03:41:04;17.00;94.90
16867;DHT22;8550;52.596;13.320;2023-05-23T03:46:08;17.00;96.20
16867;DHT22;8550;52.596;13.320;2023-05-23T03:51:10;16.90;96.30
16867;DHT22;8550;52.596;13.320;2023-05-23T03:56:13;16.80;98.00
16867;DHT22;8550;52.596;13.320;2023-05-23T04:01:16;16.70;99.90
16867;DHT22;8550;52.596;13.320;2023-05-23T04:06:18;16.70;99.90
16867;DHT22;8550;52.596;13.320;2023-05-23T04:11:22;16.60;99.90
16867;DHT22;8550;52.596;13.320;2023-05-23T04:16:25;16.60;99.90
16867;DHT22;8550;52.596;13.320;2023-05-23T04:21:27;16.50;99.90
16867;DHT22;8550;52.596;13.320;2023-05-23T04:26:29;16.70;99.90
16867;DHT22;8550;52.596;13.320;2023-05-23T04:31:33;16.60;99.90
16867;DHT22;8550;52.596;13.320;2023-05-23T04:36:35;16.60;99.90
16867;DHT22;8550;52.596;13.320;2023-05-23T04:41:38;16.60;99.90
16867;DHT22;8550;52.596;13.320;2023-05-23T04:46:42;16.60;99.90
16867;DHT22;8550;52.596;13.320;2023-05-23T04:51:44;16.60;99.90
16867;DHT22;8550;52.596;13.320;2023-05-23T04:56:46;16.60;99.90
16867;DHT22;8550;52.596;13.320;2023-05-23T05:01:50;16.60;99.90
16867;DHT22;8550;52.596;13.320;2023-05-23T05:06:51;16.60;99.90
16867;DHT22;8550;52.596;13.320;2023-05-23T05:11:53;16.60;99.90
16867;DHT22;8550;52.596;13.320;2023-05-23T05:16:57;16.50;99.90
16867;DHT22;8550;52.596;13.320;2023-05-23T05:21:59;16.60;99.90
16867;DHT22;8550;52.596;13.320;2023-05-23T05:27:01;16.70;99.90
16867;DHT22;8550;52.596;13.320;2023-05-23T05:32:04;16.70;99.90
16867;DHT22;8550;52.596;13.320;2023-05-23T05:37:08;16.70;99.90
16867;DHT22;8550;52.596;13.320;2023-05-23T05:42:13;16.60;99.90
16867;DHT22;8550;52.596;13.320;2023-05-23T05:47:17;16.70;99.90
16867;DHT22;8550;52.596;13.320;2023-05-23T05:52:19;16.70;99.90
16867;DHT22;8550;52.596;13.320;2023-05-23T05:57:20;16.70;99.90
16867;DHT22;8550;52.596;13.320;2023-05-23T06:02:24;16.60;99.90
16867;DHT22;8550;52.596;13.320;2023-05-23T06:07:26;16.80;99.90
16867;DHT22;8550;52.596;13.320;2023-05-23T06:12:28;16.70;99.90
16867;DHT22;8550;52.596;13.320;2023-05-23T06:17:31;17.00;99.90
16867;DHT22;8550;52.596;13.320;2023-05-23T06:22:33;17.00;99.90
16867;DHT22;8550;52.596;13.320;2023-05-23T06:27:35;17.10;99.90
16867;DHT22;8550;52.596;13.320;2023-05-23T06:32:39;17.20;99.90
16867;DHT22;8550;52.596;13.320;2023-05-23T06:37:41;17.20;99.90
16867;DHT22;8550;52.596;13.320;2023-05-23T06:42:45;17.20;99.90
16867;DHT22;8550;52.596;13.320;2023-05-23T06:47:48;17.50;99.90
16867;DHT22;8550;52.596;13.320;2023-05-23T06:52:50;17.90;99.90
16867;DHT22;8550;52.596;13.320;2023-05-23T06:57:52;18.30;99.90
16867;DHT22;8550;52.596;13.320;2023-05-23T07:02:55;18.60;99.90
16867;DHT22;8550;52.596;13.320;2023-05-23T07:08:00;19.10;99.90
16867;DHT22;8550;52.596;13.320;2023-05-23T07:13:02;18.90;98.20
16867;DHT22;8550;52.596;13.320;2023-05-23T07:18:06;19.00;97.80
16867;DHT22;8550;52.596;13.320;2023-05-23T07:23:07;18.90;98.50
16867;DHT22;8550;52.596;13.320;2023-05-23T07:28:09;19.10;98.10
16867;DHT22;8550;52.596;13.320;2023-05-23T07:33:13;19.30;97.40
16867;DHT22;8550;52.596;13.320;2023-05-23T07:38:15;19.30;97.70
16867;DHT22;8550;52.596;13.320;2023-05-23T07:43:17;19.30;97.80
16867;DHT22;8550;52.596;13.320;2023-05-23T07:48:21;19.60;97.70
16867;DHT22;8550;52.596;13.320;2023-05-23T07:53:23;19.60;97.40
16867;DHT22;8550;52.596;13.320;2023-05-23T07:58:25;19.70;97.80
16867;DHT22;8550;52.596;13.320;2023-05-23T08:03:29;20.20;97.50
16867;DHT22;8550;52.596;13.320;2023-05-23T08:08:30;20.50;95.50
16867;DHT22;8550;52.596;13.320;2023-05-23T08:13:33;21.10;94.90
16867;DHT22;8550;52.596;13.320;2023-05-23T08:18:36;20.70;94.40
16867;DHT22;8550;52.596;13.320;2023-05-23T08:23:38;20.60;94.90
16867;DHT22;8550;52.596;13.320;2023-05-23T08:28:40;20.60;95.30
16867;DHT22;8550;52.596;13.320;2023-05-23T08:33:43;20.70;95.20
16867;DHT22;8550;52.596;13.320;2023-05-23T08:38:45;20.90;95.70
16867;DHT22;8550;52.596;13.320;2023-05-23T08:43:47;21.50;94.80
16867;DHT22;8550;52.596;13.320;2023-05-23T08:48:52;22.10;93.90
16867;DHT22;8550;52.596;13.320;2023-05-23T08:53:54;21.60;94.60
16867;DHT22;8550;52.596;13.320;2023-05-23T08:58:58;21.70;95.00
16867;DHT22;8550;52.596;13.320;2023-05-23T09:04:02;21.80;95.10
16867;DHT22;8550;52.596;13.320;2023-05-23T09:09:06;22.10;95.40
16867;DHT22;8550;52.596;13.320;2023-05-23T09:14:08;22.30;96.30
16867;DHT22;8550;52.596;13.320;2023-05-23T09:19:13;22.30;95.60
16867;DHT22;8550;52.596;13.320;2023-05-23T09:24:15;22.50;96.70
16867;DHT22;8550;52.596;13.320;2023-05-23T09:29:19;22.50;97.00
16867;DHT22;8550;52.596;13.320;2023-05-23T09:34:23;22.20;98.40
16867;DHT22;8550;52.596;13.320;2023-05-23T09:39:24;21.90;98.90
16867;DHT22;8550;52.596;13.320;2023-05-23T09:44:27;22.20;98.80
16867;DHT22;8550;52.596;13.320;2023-05-23T09:49:30;22.30;98.40
16867;DHT22;8550;52.596;13.320;2023-05-23T09:54:32;22.70;98.50
16867;DHT22;8550;52.596;13.320;2023-05-23T09:59:37;22.50;98.60
16867;DHT22;8550;52.596;13.320;2023-05-23T10:04:42;22.50;99.00
16867;DHT22;8550;52.596;13.320;2023-05-23T10:09:47;22.20;99.90
16867;DHT22;8550;52.596;13.320;2023-05-23T10:14:53;22.70;98.40
16867;DHT22;8550;52.596;13.320;2023-05-23T10:19:59;23.50;97.10
16867;DHT22;8550;52.596;13.320;2023-05-23T10:25:02;23.60;96.30
16867;DHT22;8550;52.596;13.320;2023-05-23T10:30:06;23.80;96.20
16867;DHT22;8550;52.596;13.320;2023-05-23T10:35:16;23.70;96.10
16867;DHT22;8550;52.596;13.320;2023-05-23T10:40:23;23.60;95.70
16867;DHT22;8550;52.596;13.320;2023-05-23T10:45:28;23.50;96.50
16867;DHT22;8550;52.596;13.320;2023-05-23T10:50:33;23.30;97.50
16867;DHT22;8550;52.596;13.320;2023-05-23T10:55:36;23.40;99.50
16867;DHT22;8550;52.596;13.320;2023-05-23T11:00:38;22.20;99.90
16867;DHT22;8550;52.596;13.320;2023-05-23T11:05:46;21.90;99.90
16867;DHT22;8550;52.596;13.320;2023-05-23T11:10:53;21.80;99.90
16867;DHT22;8550;52.596;13.320;2023-05-23T11:15:55;21.50;99.90
16867;DHT22;8550;52.596;13.320;2023-05-23T11:21:00;21.10;99.90
16867;DHT22;8550;52.596;13.320;2023-05-23T11:26:02;21.30;99.90
16867;DHT22;8550;52.596;13.320;2023-05-23T11:31:04;20.50;99.90
16867;DHT22;8550;52.596;13.320;2023-05-23T11:36:07;20.40;99.90
16867;DHT22;8550;52.596;13.320;2023-05-23T11:41:09;20.80;99.90
16867;DHT22;8550;52.596;13.320;2023-05-23T11:46:11;20.70;99.90
16867;DHT22;8550;52.596;13.320;2023-05-23T11:51:14;20.60;99.90
16867;DHT22;8550;52.596;13.320;2023-05-23T11:56:17;20.70;99.90
16867;DHT22;8550;52.596;13.320;2023-05-23T12:01:20;20.80;99.90
16867;DHT22;8550;52.596;13.320;2023-05-23T12:06:24;21.00;99.90
16867;DHT22;8550;52.596;13.320;2023-05-23T12:11:26;20.80;99.90
16867;DHT22;8550;52.596;13.320;2023-05-23T12:16:33;20.30;99.90
16867;DHT22;8550;52.596;13.320;2023-05-23T12:21:45;20.00;99.90
16867;DHT22;8550;52.596;13.320;2023-05-23T12:26:50;20.00;99.90
16867;DHT22;8550;52.596;13.320;2023-05-23T12:31:53;19.80;99.90
16867;DHT22;8550;52.596;13.320;2023-05-23T12:36:57;19.60;99.90
16867;DHT22;8550;52.596;13.320;2023-05-23T12:42:06;19.90;99.90
16867;DHT22;8550;52.596;13.320;2023-05-23T12:47:09;19.60;99.90
16867;DHT22;8550;52.596;13.320;2023-05-23T12:52:12;19.90;99.90
16867;DHT22;8550;52.596;13.320;2023-05-23T12:57:14;19.80;99.90
16867;DHT22;8550;52.596;13.320;2023-05-23T13:02:17;19.70;99.90
16867;DHT22;8550;52.596;13.320;2023-05-23T13:07:21;19.30;99.90
16867;DHT22;8550;52.596;13.320;2023-05-23T13:12:23;19.00;99.90
16867;DHT22;8550;52.596;13.320;2023-05-23T13:17:25;18.70;99.90
16867;DHT22;8550;52.596;13.320;2023-05-23T13:22:29;18.60;99.90
16867;DHT22;8550;52.596;13.320;2023-05-23T13:27:31;18.00;99.90
16867;DHT22;8550;52.596;13.320;2023-05-23T13:32:33;17.70;99.90
16867;DHT22;8550;52.596;13.320;2023-05-23T13:37:36;17.70;99.90
16867;DHT22;8550;52.596;13.320;2023-05-23T13:42:38;17.50;99.90
16867;DHT22;8550;52.596;13.320;2023-05-23T13:47:40;17.70;99.90
16867;DHT22;8550;52.596;13.320;2023-05-23T13:52:44;17.80;99.90
16867;DHT22;8550;52.596;13.320;2023-05-23T13:57:46;17.90;99.90
16867;DHT22;8550;52.596;13.320;2023-05-23T14:02:48;17.90;99.90
16867;DHT22;8550;52.596;13.320;2023-05-23T14:07:51;17.80;99.90
16867;DHT22;8550;52.596;13.320;2023-05-23T14:12:53;17.90;99.90
16867;DHT22;8550;52.596;13.320;2023-05-23T14:17:55;18.10;99.90
16867;DHT22;8550;52.596;13.320;2023-05-23T14:22:58;18.10;99.90
16867;DHT22;8550;52.596;13.320;2023-05-23T14:28:00;18.00;99.90
16867;DHT22;8550;52.596;13.320;2023-05-23T14:33:02;17.70;99.90
16867;DHT22;8550;52.596;13.320;2023-05-23T14:38:05;17.60;99.90
16867;DHT22;8550;52.596;13.320;2023-05-23T14:43:07;17.60;99.90
16867;DHT22;8550;52.596;13.320;2023-05-23T14:48:09;17.60;99.90
16867;DHT22;8550;52.596;13.320;2023-05-23T14:53:13;17.50;99.90
16867;DHT22;8550;52.596;13.320;2023-05-23T14:58:15;17.10;99.90
16867;DHT22;8550;52.596;13.320;2023-05-23T15:03:17;16.80;99.90
16867;DHT22;8550;52.596;13.320;2023-05-23T15:08:20;16.40;99.90
16867;DHT22;8550;52.596;13.320;2023-05-23T15:13:23;16.20;99.90
16867;DHT22;8550;52.596;13.320;2023-05-23T15:18:25;16.00;99.90
16867;DHT22;8550;52.596;13.320;2023-05-23T15:23:29;15.80;99.90
16867;DHT22;8550;52.596;13.320;2023-05-23T15:28:31;15.80;99.90
16867;DHT22;8550;52.596;13.320;2023-05-23T15:33:33;15.80;99.90
16867;DHT22;8550;52.596;13.320;2023-05-23T15:38:36;15.70;99.90
16867;DHT22;8550;52.596;13.320;2023-05-23T15:43:38;15.50;99.90
16867;DHT22;8550;52.596;13.320;2023-05-23T15:48:40;15.30;99.90
16867;DHT22;8550;52.596;13.320;2023-05-23T15:53:43;15.00;99.90
16867;DHT22;8550;52.596;13.320;2023-05-23T15:58:45;14.70;99.90
16867;DHT22;8550;52.596;13.320;2023-05-23T16:03:50;14.50;99.90
16867;DHT22;8550;52.596;13.320;2023-05-23T16:08:54;14.30;99.90
16867;DHT22;8550;52.596;13.320;2023-05-23T16:13:56;14.10;99.90
16867;DHT22;8550;52.596;13.320;2023-05-23T16:19:03;13.80;99.90
16867;DHT22;8550;52.596;13.320;2023-05-23T16:24:07;13.70;99.90
16867;DHT22;8550;52.596;13.320;2023-05-23T16:29:09;13.70;99.90
16867;DHT22;8550;52.596;13.320;2023-05-23T16:34:11;13.60;99.90
16867;DHT22;8550;52.596;13.320;2023-05-23T16:39:15;13.50;99.90
16867;DHT22;8550;52.596;13.320;2023-05-23T16:44:18;13.50;99.90
16867;DHT22;8550;52.596;13.320;2023-05-23T16:49:20;13.40;99.90
16867;DHT22;8550;52.596;13.320;2023-05-23T16:54:23;13.30;99.90
16867;DHT22;8550;52.596;13.320;2023-05-23T16:59:25;13.20;99.90
16867;DHT22;8550;52.596;13.320;2023-05-23T17:04:27;13.10;99.90
16867;DHT22;8550;52.596;13.320;2023-05-23T17:09:31;13.20;99.90
16867;DHT22;8550;52.596;13.320;2023-05-23T17:14:33;13.10;99.90
16867;DHT22;8550;52.596;13.320;2023-05-23T17:19:35;13.20;99.90
16867;DHT22;8550;52.596;13.320;2023-05-23T17:24:38;13.10;99.90
16867;DHT22;8550;52.596;13.320;2023-05-23T17:29:42;13.00;99.90
16867;DHT22;8550;52.596;13.320;2023-05-23T17:34:44;12.90;99.90
16867;DHT22;8550;52.596;13.320;2023-05-23T17:39:47;12.80;99.90
16867;DHT22;8550;52.596;13.320;2023-05-23T17:44:50;12.80;99.90
16867;DHT22;8550;52.596;13.320;2023-05-23T17:49:52;12.80;99.90
16867;DHT22;8550;52.596;13.320;2023-05-23T17:54:56;12.80;99.90
16867;DHT22;8550;52.596;13.320;2023-05-23T17:59:58;12.70;99.90
16867;DHT22;8550;52.596;13.320;2023-05-23T18:05:00;12.80;99.90
16867;DHT22;8550;52.596;13.320;2023-05-23T18:10:05;12.70;99.90
16867;DHT22;8550;52.596;13.320;2023-05-23T18:15:08;12.70;99.90
16867;DHT22;8550;52.596;13.320;2023-05-23T18:20:11;12.80;99.90
16867;DHT22;8550;52.596;13.320;2023-05-23T18:25:14;12.80;99.90
16867;DHT22;8550;52.596;13.320;2023-05-23T18:30:19;12.80;99.90
16867;DHT22;8550;52.596;13.320;2023-05-23T18:35:21;12.90;99.90
16867;DHT22;8550;52.596;13.320;2023-05-23T18:40:26;12.90;99.90
16867;DHT22;8550;52.596;13.320;2023-05-23T18:45:28;12.90;99.90
16867;DHT22;8550;52.596;13.320;2023-05-23T18:50:30;12.90;99.90
16867;DHT22;8550;52.596;13.320;2023-05-23T18:55:35;12.90;99.90
16867;DHT22;8550;52.596;13.320;2023-05-23T19:00:37;12.80;99.90
16867;DHT22;8550;52.596;13.320;2023-05-23T19:05:39;12.80;99.90
16867;DHT22;8550;52.596;13.320;2023-05-23T19:10:42;12.80;99.90
16867;DHT22;8550;52.596;13.320;2023-05-23T19:15:44;12.90;99.90
16867;DHT22;8550;52.596;13.320;2023-05-23T19:20:46;12.90;99.90
16867;DHT22;8550;52.596;13.320;2023-05-23T19:25:52;12.80;99.90
16867;DHT22;8550;52.596;13.320;2023-05-23T19:30:54;12.80;99.90
16867;DHT22;8550;52.596;13.320;2023-05-23T19:35:56;12.80;99.90
16867;DHT22;8550;52.596;13.320;2023-05-23T19:40:59;12.80;99.90
16867;DHT22;8550;52.596;13.320;2023-05-23T19:46:01;12.80;99.90
16867;DHT22;8550;52.596;13.320;2023-05-23T19:51:03;13.00;99.90
16867;DHT22;8550;52.596;13.320;2023-05-23T19:56:06;13.00;99.90
16867;DHT22;8550;52.596;13.320;2023-05-23T20:01:09;13.00;99.90
16867;DHT22;8550;52.596;13.320;2023-05-23T20:06:11;13.00;99.90
16867;DHT22;8550;52.596;13.320;2023-05-23T20:11:14;13.00;99.90
16867;DHT22;8550;52.596;13.320;2023-05-23T20:16:16;13.00;99.90
16867;DHT22;8550;52.596;13.320;2023-05-23T20:21:18;12.90;99.90
16867;DHT22;8550;52.596;13.320;2023-05-23T20:26:23;12.90;99.90
16867;DHT22;8550;52.596;13.320;2023-05-23T20:31:25;12.90;99.90
16867;DHT22;8550;52.596;13.320;2023-05-23T20:36:27;12.80;99.90
16867;DHT22;8550;52.596;13.320;2023-05-23T20:41:30;12.90;99.90
16867;DHT22;8550;52.596;13.320;2023-05-23T20:46:32;12.70;99.90
16867;DHT22;8550;52.596;13.320;2023-05-23T20:51:36;12.50;99.90
16867;DHT22;8550;52.596;13.320;2023-05-23T20:56:40;12.50;99.90
16867;DHT22;8550;52.596;13.320;2023-05-23T21:01:42;12.40;99.90
16867;DHT22;8550;52.596;13.320;2023-05-23T21:06:43;12.30;99.90
16867;DHT22;8550;52.596;13.320;2023-05-23T21:11:47;12.20;99.90
16867;DHT22;8550;52.596;13.320;2023-05-23T21:16:49;12.20;99.90
16867;DHT22;8550;52.596;13.320;2023-05-23T21:21:51;12.20;99.90
16867;DHT22;8550;52.596;13.320;2023-05-23T21:26:56;12.20;99.90
16867;DHT22;8550;52.596;13.320;2023-05-23T21:32:01;12.00;99.90
16867;DHT22;8550;52.596;13.320;2023-05-23T21:37:03;12.00;99.90
16867;DHT22;8550;52.596;13.320;2023-05-23T21:42:06;11.90;99.90
16867;DHT22;8550;52.596;13.320;2023-05-23T21:47:08;11.80;99.90
16867;DHT22;8550;52.596;13.320;2023-05-23T21:52:10;11.70;99.90
16867;DHT22;8550;52.596;13.320;2023-05-23T21:57:14;11.60;99.90
16867;DHT22;8550;52.596;13.320;2023-05-23T22:02:15;11.60;99.90
16867;DHT22;8550;52.596;13.320;2023-05-23T22:07:17;11.30;99.90
16867;DHT22;8550;52.596;13.320;2023-05-23T22:12:26;11.30;99.90
16867;DHT22;8550;52.596;13.320;2023-05-23T22:17:28;11.30;99.90
16867;DHT22;8550;52.596;13.320;2023-05-23T22:22:33;11.30;99.90
16867;DHT22;8550;52.596;13.320;2023-05-23T22:27:36;11.20;99.90
16867;DHT22;8550;52.596;13.320;2023-05-23T22:32:38;11.20;99.90
16867;DHT22;8550;52.596;13.320;2023-05-23T22:37:40;11.20;99.90
16867;DHT22;8550;52.596;13.320;2023-05-23T22:42:43;11.10;99.90
16867;DHT22;8550;52.596;13.320;2023-05-23T22:47:45;11.10;99.90
16867;DHT22;8550;52.596;13.320;2023-05-23T22:52:50;11.00;99.90
16867;DHT22;8550;52.596;13.320;2023-05-23T22:57:54;11.10;99.90
16867;DHT22;8550;52.596;13.320;2023-05-23T23:02:56;11.00;99.90
16867;DHT22;8550;52.596;13.320;2023-05-23T23:07:58;11.00;99.90
16867;DHT22;8550;52.596;13.320;2023-05-23T23:13:01;10.90;99.90
16867;DHT22;8550;52.596;13.320;2023-05-23T23:18:03;10.90;99.90
16867;DHT22;8550;52.596;13.320;2023-05-23T23:23:06;10.80;99.90
16867;DHT22;8550;52.596;13.320;2023-05-23T23:28:09;10.80;99.90
16867;DHT22;8550;52.596;13.320;2023-05-23T23:33:11;10.70;99.90
16867;DHT22;8550;52.596;13.320;2023-05-23T23:38:14;10.70;99.90
16867;DHT22;8550;52.596;13.320;2023-05-23T23:43:17;10.60;99.90
16867;DHT22;8550;52.596;13.320;2023-05-23T23:48:19;10.50;99.90
16867;DHT22;8550;52.596;13.320;2023-05-23T23:53:21;10.40;99.90
16867;DHT22;8550;52.596;13.320;2023-05-23T23:58:24;10.40;99.90
